• Join FlightAware (Why Join?)
  • Login
  • US Flag 
06:02AM EDT


 

Airport Tracker/Info


-or-


 

Live Flight TrackerFlight Track Log ✈ VOZ1726 ✈ 14-Oct-2013 ✈ YPKA / KTA - YPPH / PER

Flight Track Log - Related Links

Times and Time Zones

All times are in EDT time to prevent confusion due to time zone crossing. See the VOZ1726 flight status page for this flight to view local times or setup timezone preferences in your user account.

Time Position Orientation Groundspeed Altitude Reporting Facility
EDT Latitude Longitude Course Direction KTS MPH feet Rate Location/Type
02:02AM -20.7140 116.7690 223° Southwest 78 90 100  Level FlightAware
02:03AM -20.7120 116.7860 83° East 149 171 400 1,560 Climbing FlightAware
02:03AM -20.7682 116.7743 34° Northeast 31,000 2,220 Climbing Aus ATC (Calculated)
02:03AM -20.7654 116.7736 36° Northeast 31,000 -53,100 Level Aus ATC (Calculated)
02:03AM -20.7240 116.8060 83° East 166 191 1,800 -45,180 Descending FlightAware
02:04AM -20.7430 116.8030 83° East 195 224 2,400 2,160 Climbing FlightAware
02:04AM -20.8716 116.7744 15° North 31,000 2,520 Climbing Aus ATC (Calculated)
02:04AM -20.7610 116.8050 174° South 197 227 3,300 -47,520 Descending FlightAware
02:04AM -20.7810 116.8060 174° South 214 246 4,100 2,220 Climbing FlightAware
02:04AM -20.9273 116.7754 12° North 31,000 1,980 Climbing Aus ATC (Calculated)
02:05AM -20.7980 116.8060 180° South 245 282 4,600 -52,980 Descending FlightAware
02:05AM -20.8180 116.8060 180° South 260 299 5,400 3,240 Climbing FlightAware
02:05AM -20.8420 116.8050 182° South 277 319 6,500 3,420 Climbing FlightAware
02:06AM -20.8680 116.8050 180° South 276 318 7,700 3,600 Climbing FlightAware
02:06AM -21.0865 116.7764 North 31,000 3,600 Climbing Aus ATC (Calculated)
02:06AM -20.8880 116.8050 180° South 293 337 8,600 -28,620 Descending FlightAware
02:06AM -21.1371 116.7762 North 31,000 3,300 Climbing Aus ATC (Calculated)
02:06AM -20.9370 116.8050 180° South 308 354 10,500 -17,580 Descending FlightAware
02:07AM -20.9960 116.8050 180° South 338 389 12,300 2,520 Climbing FlightAware
02:08AM -21.0410 116.8050 180° South 353 406 13,700 3,000 Climbing FlightAware
02:08AM -21.3518 116.7782 North 31,000 3,780 Climbing Aus ATC (Calculated)
02:08AM -21.1061 116.8015 180° South 358 412 15,600 -30,000 Descending Aus ATC (RADAR)
02:08AM -21.1170 116.8050 180° South 371 427 16,000 3,600 Climbing FlightAware
02:09AM -21.1751 116.8008 180° South 357 411 18,000 4,440 Climbing Aus ATC (RADAR)
02:09AM -21.1790 116.8040 180° South 341 392 18,600 4,260 Climbing FlightAware
02:09AM -21.2330 116.8040 180° South 338 389 20,700 2,460 Climbing FlightAware
02:10AM -21.2960 116.8040 180° South 370 426 21,700 1,680 Climbing FlightAware
02:10AM -21.3045 116.8027 180° South 353 406 21,900 2,520 Climbing Aus ATC (RADAR)
02:11AM -21.3673 116.8019 180° South 367 422 23,300 240 Climbing Aus ATC (RADAR)
02:11AM -21.3650 116.8040 180° South 373 429 22,100 1,980 Descending FlightAware
02:11AM -21.4440 116.8040 180° South 405 466 24,700 2,220 Climbing FlightAware
02:12AM -21.5400 116.8040 180° South 417 480 25,400 1,740 Climbing FlightAware
02:13AM -21.6155 116.8019 180° South 410 472 27,300 3,420 Climbing Aus ATC (RADAR)
02:13AM -21.6140 116.8030 180° South 418 481 27,300 1,620 Level FlightAware
02:13AM -21.6900 116.8030 180° South 433 498 28,300 960 Climbing FlightAware
02:14AM -21.7560 116.8030 180° South 437 503 28,500 1,140 Climbing FlightAware
02:15AM -21.8277 116.8014 180° South 432 497 29,600  Climbing Aus ATC (RADAR)
02:15AM -21.8180 116.8030 180° South 437 503 28,500 660 Descending FlightAware
02:15AM -21.9016 116.8016 180° South 442 509 30,000  Climbing Aus ATC (RADAR)
02:15AM -21.8800 116.8030 180° South 437 503 28,500  Descending FlightAware
02:16AM -21.9930 116.8030 180° South 480 552 30,000 1,320 Climbing FlightAware
02:16AM -22.0703 116.8017 180° South 476 548 30,000  Level Aus ATC (RADAR)
02:17AM -22.0890 116.8020 180° South 479 551 30,000  Level FlightAware
02:17AM -22.1570 116.8020 180° South 479 551 30,000  Level FlightAware
02:18AM -22.2250 116.8020 180° South 479 551 30,000  Level FlightAware
02:18AM -22.3406 116.8007 180° South 478 550 30,000  Level Aus ATC (RADAR)
02:18AM -22.2930 116.8020 180° South 479 551 30,000  Level FlightAware
02:19AM -22.4201 116.8002 180° South 479 551 30,000  Level Aus ATC (RADAR)
02:19AM -22.3610 116.8020 180° South 479 551 30,000  Level FlightAware
02:20AM -22.4280 116.8020 180° South 479 551 30,000  Level FlightAware
02:20AM -22.4960 116.8020 180° South 479 551 30,000  Level FlightAware
02:21AM -22.5660 116.8020 180° South 479 551 30,000  Level FlightAware
02:21AM -22.6340 116.8020 180° South 479 551 30,000  Level FlightAware
02:22AM -22.7020 116.8020 180° South 479 551 30,000  Level FlightAware
02:23AM -22.7690 116.8020 180° South 479 551 30,000  Level FlightAware
02:23AM -22.8370 116.8020 180° South 479 551 30,000  Level FlightAware
02:24AM -22.9070 116.8020 180° South 479 551 30,000  Level FlightAware
02:24AM -22.9750 116.8020 180° South 479 551 30,000  Level FlightAware
02:25AM -23.0460 116.8020 180° South 479 551 30,000  Level FlightAware
02:26AM -23.1140 116.8020 180° South 479 551 30,000  Level FlightAware
02:27AM -23.4407 116.7985 180° South 479 551 30,000  Level Aus ATC (RADAR)
02:27AM -23.5194 116.7986 180° South 477 549 30,000 60 Level Aus ATC (RADAR)
02:28AM -23.6545 116.7984 180° South 480 552 30,100 60 Climbing Aus ATC (RADAR)
02:29AM -23.7102 116.7983 180° South 477 549 30,100  Level Aus ATC (RADAR)
02:29AM -23.7878 116.7983 180° South 473 544 30,100  Level Aus ATC (RADAR)
02:30AM -23.8985 116.7980 180° South 471 542 30,100  Level Aus ATC (RADAR)
02:31AM -23.9761 116.7975 180° South 471 542 30,100  Level Aus ATC (RADAR)
02:31AM -24.0536 116.7973 180° South 472 543 30,100  Level Aus ATC (RADAR)
02:32AM -24.1645 116.7972 180° South 472 543 30,100  Level Aus ATC (RADAR)
02:33AM -24.3092 116.7931 181° South 475 547 30,100  Level Aus ATC (RADAR)
02:34AM -24.4198 116.7908 181° South 472 543 30,100  Level Aus ATC (RADAR)
02:34AM -24.4753 116.7893 181° South 473 544 30,100  Level Aus ATC (RADAR)
02:35AM -24.5528 116.7868 182° South 473 544 30,100  Level Aus ATC (RADAR)
02:36AM -24.7223 116.7831 181° South 486 559 30,100  Level Aus ATC (RADAR)
02:37AM -24.8030 116.7824 180° South 489 563 30,100  Level Aus ATC (RADAR)
02:38AM -24.9851 116.7787 181° South 486 559 30,100  Level Aus ATC (RADAR)
02:40AM -25.2216 116.7714 182° South 484 557 30,100  Level Aus ATC (RADAR)
02:41AM -25.3463 116.7682 181° South 485 558 30,100  Level Aus ATC (RADAR)
02:41AM -25.4256 116.7667 181° South 484 557 30,100  Level Aus ATC (RADAR)
02:42AM -25.5732 116.7648 181° South 486 559 30,100  Level Aus ATC (RADAR)
02:43AM -25.6404 116.7609 183° South 484 557 30,100  Level Aus ATC (RADAR)
02:44AM -25.7547 116.7585 181° South 487 560 30,100  Level Aus ATC (RADAR)
02:44AM -25.8526 116.7417 189° South 478 550 30,100  Level Aus ATC (RADAR)
02:45AM -25.9670 116.7445 179° South 486 559 30,100  Level Aus ATC (RADAR)
02:49AM -26.4706 116.7371 182° South 30,000  Descending Aus ATC (Calculated)
02:50AM -26.7297 116.7308 182° South 30,000  Level Aus ATC (Calculated)
02:51AM -26.7999 116.7291 182° South 30,000  Level Aus ATC (Calculated)
02:53AM -26.5349 116.7380 North  Level FlightAware Approximate
02:53AM -27.1947 116.7196 182° South 30,000  Level Aus ATC (Calculated)
02:54AM -26.6685 116.7336 182° South  Level FlightAware Approximate
02:55AM -27.0521 116.7234 North  Level FlightAware Approximate
02:56AM -27.1847 116.7038 181° South  Level Estimated
02:56AM -27.5236 116.7116 183° South 30,000  Level Aus ATC (Calculated)
02:57AM -27.6058 116.7095 183° South 30,000  Level Aus ATC (Calculated)
02:58AM -27.8525 116.7035 184° South 30,000  Level Aus ATC (Calculated)
02:59AM -27.8375 116.7039 181° South  Level FlightAware Approximate
02:59AM -27.8525 116.7035 184° South 29,300  Level Aus ATC (Calculated)
03:00AM -28.0214 116.6991 186° South 29,300 240 Level Aus ATC (Calculated)
03:02AM -27.8253 116.7042 North  Level FlightAware Approximate
03:02AM -28.2092 116.6768 North 488 562 30,100  Level Aus ATC (RADAR)
03:03AM -28.2987 116.6860 175° South 471 542 30,100  Level Aus ATC (RADAR)
03:03AM -28.4184 116.6852 180° South 470 541 30,100  Level Aus ATC (RADAR)
03:04AM -28.4613 116.6844 181° South 466 536 30,100  Level Aus ATC (RADAR)
03:05AM -28.5796 116.6820 181° South 462 532 30,100  Level Aus ATC (RADAR)
03:05AM -28.6335 116.6800 182° South 465 535 30,100  Level Aus ATC (RADAR)
03:06AM -28.6870 116.6786 181° South 457 526 30,100  Level Aus ATC (RADAR)
03:06AM -28.7617 116.6716 185° South 461 531 30,100 -120 Level Aus ATC (RADAR)
03:06AM -28.8016 116.6786 185° South 466 536 30,000 -180 Descending FlightAware ADS-B (YPPH / PER)
03:07AM -28.8666 116.6769 181° South 465 535 30,000  Level FlightAware ADS-B (YPPH / PER)
03:07AM -28.9313 116.6752 181° South 463 533 30,000  Level FlightAware ADS-B (YPPH / PER)
03:08AM -29.0004 116.6733 181° South 463 533 30,000  Level FlightAware ADS-B (YPPH / PER)
03:08AM -29.0654 116.6716 181° South 466 536 30,000  Level FlightAware ADS-B (YPPH / PER)
03:09AM -29.1391 116.6697 181° South 465 535 30,000  Level FlightAware ADS-B (YPPH / PER)
03:10AM -29.2029 116.6681 181° South 454 522 30,000  Level FlightAware ADS-B (YPPH / PER)
03:10AM -29.2672 116.6664 181° South 449 517 30,000  Level FlightAware ADS-B (YPPH / PER)
03:11AM -29.3299 116.6647 181° South 454 522 30,000  Level FlightAware ADS-B (YPPH / PER)
03:11AM -29.3928 116.6630 181° South 452 520 30,000  Level FlightAware ADS-B (YPPH / PER)
03:12AM -29.4557 116.6613 181° South 450 518 30,000  Level FlightAware ADS-B (YPPH / PER)
03:12AM -29.5209 116.6597 181° South 449 517 30,000  Level FlightAware ADS-B (YPPH / PER)
03:13AM -29.5830 116.6580 181° South 448 516 30,000  Level FlightAware ADS-B (YPPH / PER)
03:13AM -29.6447 116.6563 181° South 437 503 30,000  Level FlightAware ADS-B (YPPH / PER)
03:14AM -29.7064 116.6547 181° South 436 502 30,000  Level FlightAware ADS-B (YPPH / PER)
03:14AM -29.7680 116.6530 181° South 436 502 30,000  Level FlightAware ADS-B (YPPH / PER)
03:15AM -29.8298 116.6514 181° South 436 502 30,000  Level FlightAware ADS-B (YPPH / PER)
03:15AM -29.8926 116.6497 181° South 437 503 30,000  Level FlightAware ADS-B (YPPH / PER)
03:16AM -29.9580 116.6479 181° South 438 504 30,000  Level FlightAware ADS-B (YPPH / PER)
03:16AM -30.0201 116.6462 181° South 436 502 30,000  Level FlightAware ADS-B (YPPH / PER)
03:17AM -30.0816 116.6445 181° South 436 502 30,000  Level FlightAware ADS-B (YPPH / PER)
03:17AM -30.1429 116.6429 181° South 437 503 30,000  Level FlightAware ADS-B (YPPH / PER)
03:18AM -30.2057 116.6412 181° South 438 504 30,000  Level FlightAware ADS-B (YPPH / PER)
03:18AM -30.2679 116.6395 181° South 447 514 30,000  Level FlightAware ADS-B (YPPH / PER)
03:19AM -30.3310 116.6378 181° South 438 504 30,000  Level FlightAware ADS-B (YPPH / PER)
03:20AM -30.4491 116.6347 181° South 438 504 30,000  Level FlightAware ADS-B (YPPH / PER)
03:20AM -30.5107 116.6329 181° South 434 499 30,000  Level FlightAware ADS-B (YPPH / PER)
03:21AM -30.5738 116.6222 188° South 431 496 30,000  Level FlightAware ADS-B (YPPH / PER)
03:21AM -30.6316 116.6012 197° South 429 494 30,000 -540 Level FlightAware ADS-B (YPPH / PER)
03:22AM -30.6883 116.5794 198° South 423 487 29,500 -2,100 Descending FlightAware ADS-B (YPPH / PER)
03:22AM -30.7432 116.5582 198° South 410 472 27,900 -2,940 Descending FlightAware ADS-B (YPPH / PER)
03:23AM -30.7940 116.5380 199° South 409 471 26,500 -3,180 Descending FlightAware
03:23AM -30.8150 116.5302 198° South 405 466 25,800 -3,840 Descending FlightAware ADS-B (YPPH / PER)
03:23AM -30.8680 116.5096 198° South 390 449 24,100 -3,540 Descending FlightAware ADS-B (YPPH / PER)
03:24AM -30.9237 116.4878 199° South 392 451 22,200 -3,720 Descending FlightAware ADS-B (YPPH / PER)
03:24AM -30.9743 116.4680 199° South 391 450 20,300 -3,420 Descending FlightAware ADS-B (YPPH / PER)
03:25AM -31.0254 116.4481 199° South 372 428 18,800 -3,000 Descending FlightAware ADS-B (YPPH / PER)
03:25AM -31.0756 116.4284 199° South 375 432 17,300 -2,520 Descending FlightAware ADS-B (YPPH / PER)
03:26AM -31.1246 116.4091 199° South 371 427 16,300 -1,920 Descending FlightAware ADS-B (YPPH / PER)
03:26AM -31.1721 116.3904 199° South 359 413 15,400 -1,920 Descending FlightAware ADS-B (YPPH / PER)
03:27AM -31.2396 116.3639 199° South 355 409 14,000 -1,920 Descending FlightAware ADS-B (YPPH / PER)
03:28AM -31.3013 116.3396 199° South 341 392 12,800 -1,800 Descending FlightAware ADS-B (YPPH / PER)
03:28AM -31.3458 116.3220 199° South 327 376 11,900 -1,620 Descending FlightAware ADS-B (YPPH / PER)
03:29AM -31.3875 116.3055 199° South 294 338 11,200 -1,140 Descending FlightAware ADS-B (YPPH / PER)
03:29AM -31.4240 116.2886 201° Southwest 275 316 10,800 -1,320 Descending FlightAware ADS-B (YPPH / PER)
03:30AM -31.4582 116.2671 208° Southwest 279 321 9,900 -1,860 Descending FlightAware ADS-B (YPPH / PER)
03:30AM -31.4832 116.2513 208° Southwest 279 321 9,200 -1,740 Descending FlightAware ADS-B (YPPH / PER)
03:30AM -31.4957 116.2454 202° Southwest 269 310 9,000 -1,020 Descending FlightAware ADS-B (YPPH / PER)
03:31AM -31.5212 116.2424 186° South 278 320 8,700 -600 Descending FlightAware ADS-B (YPPH / PER)
03:31AM -31.5469 116.2466 172° South 282 325 8,600 -360 Descending FlightAware ADS-B (YPPH / PER)
03:31AM -31.5708 116.2530 167° South 284 327 8,500 -180 Descending FlightAware ADS-B (YPPH / PER)
03:32AM -31.5979 116.2604 167° South 280 322 8,500  Level FlightAware ADS-B (YPPH / PER)
03:32AM -31.6235 116.2674 167° South 284 327 8,500 -180 Level FlightAware ADS-B (YPPH / PER)
03:32AM -31.6449 116.2733 167° South 281 323 8,400 -1,080 Descending FlightAware ADS-B (YPPH / PER)
03:33AM -31.6748 116.2801 169° South 277 319 7,800 -1,500 Descending FlightAware ADS-B (YPPH / PER)
03:33AM -31.6998 116.2771 186° South 286 329 7,400 -1,440 Descending FlightAware ADS-B (YPPH / PER)
03:33AM -31.7131 116.2706 203° Southwest 283 326 7,100 -1,440 Descending FlightAware ADS-B (YPPH / PER)
03:33AM -31.7224 116.2611 221° Southwest 275 316 6,900 -1,380 Descending FlightAware ADS-B (YPPH / PER)
03:33AM -31.7302 116.2456 239° Southwest 277 319 6,600 -1,800 Descending FlightAware ADS-B (YPPH / PER)
03:34AM -31.7383 116.2185 251° West 274 315 6,000 -1,860 Descending FlightAware ADS-B (YPPH / PER)
03:34AM -31.7464 116.1905 251° West 273 314 5,400 -1,800 Descending FlightAware ADS-B (YPPH / PER)
03:34AM -31.7548 116.1615 251° West 269 310 4,800 -1,560 Descending FlightAware ADS-B (YPPH / PER)
03:35AM -31.7623 116.1360 251° West 265 305 4,400 -1,500 Descending FlightAware ADS-B (YPPH / PER)
03:35AM -31.7707 116.1075 251° West 265 305 3,800 -1,440 Descending FlightAware ADS-B (YPPH / PER)
03:35AM -31.7790 116.0791 251° West 261 300 3,400 -900 Descending FlightAware ADS-B (YPPH / PER)
03:36AM -31.7862 116.0540 251° West 236 272 3,200 -480 Descending FlightAware ADS-B (YPPH / PER)
03:36AM -31.7928 116.0314 251° West 216 249 3,100 -660 Descending FlightAware ADS-B (YPPH / PER)
03:36AM -31.8004 116.0128 245° Southwest 190 219 2,800 -1,200 Descending FlightAware ADS-B (YPPH / PER)
03:37AM -31.8340 115.9960 245° Southwest 167 192 1,900 -1,080 Descending FlightAware
03:37AM -31.8356 115.9960 245° Southwest 187 215 2,000 -1,200 Climbing Aus ATC (RADAR)
03:37AM -31.8480 115.9920 194° South 154 177 1,500 -1,260 Descending FlightAware
03:38AM -31.8620 115.9880 194° South 134 154 1,200 -780 Descending FlightAware
03:38AM -31.8780 115.9830 195° South 114 131 900 -660 Descending FlightAware
03:39AM -31.8865 115.9808 193° South 105 121 700 -600 Descending FlightAware ADS-B (YPPH / PER)
03:39AM -31.9040 115.9750 196° South 104 120 400 -480 Descending FlightAware
03:39AM -31.9110 115.9740 187° South 105 121 300 -600 Descending FlightAware
03:40AM -31.9207 115.9707 196° South 100 115 100 -720 Descending FlightAware ADS-B (YPPH / PER)